createdAt,value
2023-02-14T00:01:15.351Z,39.33
2023-02-14T00:03:42.477Z,34.20
2023-02-14T00:06:12.442Z,33.00
2023-02-14T00:08:41.199Z,34.95
2023-02-14T00:11:11.497Z,25.70
2023-02-14T00:13:39.450Z,33.58
2023-02-14T00:16:06.988Z,39.45
2023-02-14T00:18:52.636Z,38.10
2023-02-14T00:21:19.813Z,30.58
2023-02-14T00:23:47.009Z,33.50
2023-02-14T00:26:17.421Z,33.92
2023-02-14T00:28:45.031Z,34.05
2023-02-14T00:31:12.615Z,33.40
2023-02-14T00:33:40.045Z,29.60
2023-02-14T00:36:07.609Z,31.27
2023-02-14T00:38:35.298Z,32.47
2023-02-14T00:41:03.904Z,26.80
2023-02-14T00:43:31.568Z,31.17
2023-02-14T00:46:01.642Z,31.48
2023-02-14T00:48:28.934Z,31.20
2023-02-14T00:50:56.346Z,28.10
2023-02-14T00:53:23.647Z,25.42
2023-02-14T00:55:50.835Z,28.75
2023-02-14T00:58:18.065Z,30.88
2023-02-14T01:00:45.286Z,33.17
2023-02-14T01:03:12.929Z,27.27
2023-02-14T01:05:40.173Z,30.80
2023-02-14T01:08:07.619Z,29.67
2023-02-14T01:10:37.310Z,31.13
2023-02-14T01:13:04.884Z,29.65
2023-02-14T01:15:32.975Z,28.45
2023-02-14T01:18:00.674Z,31.48
2023-02-14T01:20:27.962Z,29.52
2023-02-14T01:22:55.170Z,27.20
2023-02-14T01:25:22.358Z,29.67
2023-02-14T01:27:49.542Z,33.72
2023-02-14T01:30:17.255Z,31.80
2023-02-14T01:32:45.334Z,30.27
2023-02-14T01:35:12.692Z,29.95
2023-02-14T01:37:40.380Z,34.90
2023-02-14T01:40:15.656Z,34.67
2023-02-14T01:42:43.850Z,27.13
2023-02-14T01:45:19.163Z,26.20
2023-02-14T01:47:52.011Z,28.65
2023-02-14T01:52:59.866Z,29.40
2023-02-14T01:55:32.449Z,29.98
2023-02-14T01:58:04.145Z,31.17
2023-02-14T02:00:50.330Z,32.55
2023-02-14T02:03:19.376Z,34.15
2023-02-14T02:05:54.949Z,35.33
2023-02-14T02:08:24.974Z,32.63
2023-02-14T02:10:52.161Z,31.58
2023-02-14T02:13:22.125Z,34.55
2023-02-14T02:16:12.995Z,32.33
2023-02-14T02:19:24.686Z,29.75
2023-02-14T02:22:18.268Z,29.42
2023-02-14T02:25:09.507Z,34.45
2023-02-14T02:28:27.145Z,30.10
2023-02-14T02:31:40.387Z,34.10
2023-02-14T02:34:26.538Z,33.70
2023-02-14T02:36:56.417Z,31.77
2023-02-14T02:39:40.909Z,36.33
2023-02-14T02:42:51.319Z,33.47
2023-02-14T02:46:00.049Z,34.33
2023-02-14T02:48:36.520Z,34.35
2023-02-14T02:51:26.506Z,31.02
2023-02-14T02:54:03.757Z,29.35
2023-02-14T02:56:46.616Z,32.30
2023-02-14T02:59:24.753Z,30.25
2023-02-14T03:02:14.970Z,33.42
2023-02-14T03:04:54.053Z,27.00
2023-02-14T03:07:39.860Z,32.92
2023-02-14T03:10:20.464Z,28.57
2023-02-14T03:13:06.346Z,29.65
2023-02-14T03:16:10.545Z,27.55
2023-02-14T03:19:19.487Z,29.13
2023-02-14T03:22:15.744Z,30.17
2023-02-14T03:24:59.074Z,31.67
2023-02-14T03:27:32.813Z,32.25
2023-02-14T03:30:08.073Z,31.17
2023-02-14T03:32:43.868Z,31.25
2023-02-14T03:35:18.599Z,29.15
2023-02-14T03:37:55.321Z,31.17
2023-02-14T03:40:35.331Z,32.65
2023-02-14T03:43:15.506Z,32.08
2023-02-14T03:46:08.726Z,31.70
2023-02-14T03:48:38.228Z,27.98
2023-02-14T03:51:09.479Z,26.80
2023-02-14T03:53:40.348Z,33.03
2023-02-14T03:56:22.594Z,31.92
2023-02-14T04:01:26.279Z,28.70
2023-02-14T04:03:55.947Z,29.65
2023-02-14T04:06:23.446Z,29.13
2023-02-14T04:08:50.726Z,31.95
2023-02-14T04:11:18.074Z,34.08
2023-02-14T04:13:45.391Z,32.67
2023-02-14T04:16:12.606Z,31.80
2023-02-14T04:18:58.130Z,38.55
2023-02-14T04:21:26.511Z,29.88
2023-02-14T04:23:53.688Z,31.15
2023-02-14T04:26:20.791Z,31.88
2023-02-14T04:28:47.967Z,33.13
2023-02-14T04:31:15.975Z,32.40
2023-02-14T04:33:44.964Z,29.13
2023-02-14T04:36:12.300Z,28.52
2023-02-14T04:38:39.563Z,32.45
2023-02-14T04:41:06.738Z,30.30
2023-02-14T04:43:33.954Z,35.65
2023-02-14T04:46:01.158Z,30.25
2023-02-14T04:48:28.367Z,34.83
2023-02-14T04:50:55.833Z,35.63
2023-02-14T04:53:22.995Z,32.42
2023-02-14T04:55:50.578Z,36.22
2023-02-14T04:58:18.464Z,37.40
2023-02-14T05:00:45.827Z,37.72
2023-02-14T05:03:13.048Z,32.40
2023-02-14T05:05:40.295Z,30.10
2023-02-14T05:08:07.441Z,29.45
2023-02-14T05:10:34.645Z,33.10
2023-02-14T05:13:02.117Z,32.30
2023-02-14T05:15:29.395Z,33.22
2023-02-14T05:17:59.871Z,34.33
2023-02-14T05:20:27.295Z,37.50
2023-02-14T05:22:54.558Z,31.20
2023-02-14T05:25:21.848Z,36.63
2023-02-14T05:27:49.018Z,34.20
2023-02-14T05:30:16.517Z,36.78
2023-02-14T05:32:43.732Z,32.13
2023-02-14T05:35:11.040Z,41.38
2023-02-14T05:37:38.265Z,39.70
2023-02-14T05:40:07.526Z,33.20
2023-02-14T05:42:34.828Z,35.08
2023-02-14T05:45:02.550Z,37.33
2023-02-14T05:47:29.804Z,34.75
2023-02-14T05:49:56.957Z,35.90
2023-02-14T05:52:24.276Z,29.30
2023-02-14T05:54:51.793Z,33.03
2023-02-14T05:57:18.976Z,33.60
2023-02-14T05:59:46.171Z,36.05
2023-02-14T06:02:14.327Z,36.42
2023-02-14T06:04:41.866Z,36.78
2023-02-14T06:07:09.105Z,34.65
2023-02-14T06:09:36.283Z,32.83
2023-02-14T06:12:03.554Z,27.80
2023-02-14T06:14:30.713Z,29.75
2023-02-14T06:16:57.980Z,30.23
2023-02-14T06:19:25.241Z,26.95
2023-02-14T06:21:52.506Z,35.55
2023-02-14T06:24:19.757Z,35.00
2023-02-14T06:26:46.944Z,32.33
2023-02-14T06:29:16.900Z,32.85
2023-02-14T06:31:44.574Z,34.78
2023-02-14T06:34:11.949Z,32.55
2023-02-14T06:36:39.249Z,37.40
2023-02-14T06:39:06.527Z,38.65
2023-02-14T06:41:33.841Z,36.58
2023-02-14T06:44:01.116Z,30.23
2023-02-14T06:46:28.309Z,36.80
2023-02-14T06:48:55.512Z,36.72
2023-02-14T06:51:22.694Z,33.13
2023-02-14T06:53:49.986Z,34.33
2023-02-14T06:56:17.176Z,33.50
2023-02-14T06:58:44.378Z,36.88
2023-02-14T07:01:11.673Z,30.48
2023-02-14T07:03:39.037Z,30.63
2023-02-14T07:06:06.355Z,31.98
2023-02-14T07:08:33.697Z,32.60
2023-02-14T07:11:01.306Z,36.80
2023-02-14T07:13:28.900Z,35.38
2023-02-14T07:15:56.609Z,37.03
2023-02-14T07:18:23.838Z,33.35
2023-02-14T07:20:51.444Z,32.08
2023-02-14T07:23:18.666Z,34.55
2023-02-14T07:25:45.992Z,38.25
2023-02-14T07:28:13.238Z,39.40
2023-02-14T07:30:40.508Z,39.45
2023-02-14T07:33:07.887Z,36.35
2023-02-14T07:35:35.714Z,34.53
2023-02-14T07:38:02.942Z,29.48
2023-02-14T07:40:30.253Z,31.73
2023-02-14T07:42:58.539Z,37.88
2023-02-14T07:45:26.713Z,33.15
2023-02-14T07:47:55.293Z,36.45
2023-02-14T07:50:23.745Z,37.80
2023-02-14T07:52:51.464Z,38.70
2023-02-14T07:55:19.486Z,38.58
2023-02-14T07:57:50.072Z,33.78
2023-02-14T08:00:17.810Z,36.40
2023-02-14T08:02:45.310Z,37.20
2023-02-14T08:05:12.723Z,36.72
2023-02-14T08:07:39.951Z,35.10
2023-02-14T08:10:07.751Z,30.30
2023-02-14T08:12:53.861Z,38.40
2023-02-14T08:15:39.362Z,39.03
2023-02-14T08:18:06.585Z,37.85
2023-02-14T08:20:33.722Z,35.28
2023-02-14T08:23:00.993Z,41.35
2023-02-14T08:25:28.333Z,41.88
2023-02-14T08:27:55.767Z,39.58
2023-02-14T08:30:24.331Z,42.10
2023-02-14T08:32:53.169Z,43.72
2023-02-14T08:35:20.434Z,43.97
2023-02-14T08:37:48.244Z,40.40
2023-02-14T08:40:15.862Z,36.28
2023-02-14T08:42:43.176Z,47.75
2023-02-14T08:45:10.860Z,40.25
2023-02-14T08:47:38.653Z,41.55
2023-02-14T08:50:08.306Z,42.95
2023-02-14T08:52:35.534Z,47.85
2023-02-14T08:55:03.577Z,46.65
2023-02-14T08:57:30.852Z,46.03
2023-02-14T08:59:58.063Z,47.60
2023-02-14T09:02:25.309Z,38.85
2023-02-14T09:04:52.523Z,41.88
2023-02-14T09:07:20.035Z,43.42
2023-02-14T09:09:47.395Z,42.55
2023-02-14T09:12:14.747Z,36.65
2023-02-14T09:14:46.189Z,29.70
2023-02-14T09:17:14.952Z,35.88
2023-02-14T09:19:42.587Z,33.60
2023-02-14T09:22:11.552Z,37.90
2023-02-14T09:24:39.976Z,33.63
2023-02-14T09:27:08.518Z,31.13
2023-02-14T09:29:37.269Z,40.63
2023-02-14T09:32:05.307Z,37.08
2023-02-14T09:34:34.642Z,38.70
2023-02-14T09:37:20.376Z,43.55
2023-02-14T09:39:47.534Z,39.80
2023-02-14T09:42:32.953Z,42.03
2023-02-14T09:45:09.761Z,58.40
2023-02-14T09:47:40.554Z,54.42
2023-02-14T09:50:18.354Z,65.70
2023-02-14T09:52:49.517Z,70.25
2023-02-14T09:55:18.290Z,60.80
2023-02-14T09:57:59.072Z,71.15
2023-02-14T10:00:52.173Z,65.78
2023-02-14T10:03:47.315Z,69.18
2023-02-14T10:06:31.362Z,63.20
2023-02-14T10:09:16.829Z,62.13
2023-02-14T10:11:47.652Z,61.13
2023-02-14T10:14:24.709Z,60.42
2023-02-14T10:17:16.316Z,58.47
2023-02-14T10:19:50.028Z,55.53
2023-02-14T10:22:21.433Z,63.88
2023-02-14T10:24:53.186Z,52.65
2023-02-14T10:27:29.533Z,56.10
2023-02-14T10:29:57.009Z,54.10
2023-02-14T10:32:46.990Z,55.75
2023-02-14T10:35:43.259Z,66.20
2023-02-14T10:38:18.317Z,57.40
2023-02-14T10:40:55.822Z,53.22
2023-02-14T10:43:56.672Z,59.25
2023-02-14T10:46:54.375Z,47.88
2023-02-14T10:50:00.779Z,46.80
2023-02-14T10:52:39.875Z,39.95
2023-02-14T10:55:32.834Z,41.25
2023-02-14T10:58:05.542Z,48.30
2023-02-14T11:00:41.360Z,53.65
2023-02-14T11:03:10.888Z,52.00
2023-02-14T11:05:46.763Z,50.22
2023-02-14T11:08:26.564Z,49.13
2023-02-14T11:11:19.583Z,47.95
2023-02-14T11:13:47.191Z,38.25
2023-02-14T11:16:35.458Z,42.63
2023-02-14T11:19:14.894Z,42.15
2023-02-14T11:21:47.298Z,35.85
2023-02-14T11:27:04.359Z,43.22
2023-02-14T11:29:36.656Z,42.92
2023-02-14T11:34:48.348Z,32.25
2023-02-14T11:37:20.760Z,37.30
2023-02-14T11:39:49.126Z,37.50
2023-02-14T11:42:33.845Z,35.05
2023-02-14T11:45:01.220Z,33.42
2023-02-14T11:47:30.888Z,30.83
2023-02-14T11:50:07.256Z,27.60
2023-02-14T11:52:49.467Z,30.25
2023-02-14T11:55:43.301Z,24.45
2023-02-14T11:58:31.410Z,20.42
2023-02-14T12:01:00.250Z,17.92
2023-02-14T12:03:34.009Z,14.75
2023-02-14T12:06:03.526Z,13.30
2023-02-14T12:08:31.952Z,15.48
2023-02-14T12:11:17.873Z,16.65
2023-02-14T12:14:00.854Z,14.65
2023-02-14T12:16:42.436Z,12.90
2023-02-14T12:19:23.461Z,13.03
2023-02-14T12:21:57.117Z,11.70
2023-02-14T12:24:28.470Z,11.55
2023-02-14T12:26:55.709Z,10.18
2023-02-14T12:29:44.494Z,9.80
2023-02-14T12:32:21.515Z,12.73
2023-02-14T12:34:49.944Z,12.55
2023-02-14T12:37:50.870Z,7.65
2023-02-14T12:40:52.389Z,7.90
2023-02-14T12:43:19.494Z,9.07
2023-02-14T12:46:03.443Z,8.32
2023-02-14T12:48:50.801Z,8.52
2023-02-14T12:51:30.178Z,12.38
2023-02-14T12:54:23.354Z,10.60
2023-02-14T12:57:17.407Z,17.85
2023-02-14T13:00:02.152Z,15.07
2023-02-14T13:02:38.535Z,20.80
2023-02-14T13:05:33.987Z,25.40
2023-02-14T13:08:28.859Z,27.67
2023-02-14T13:11:00.676Z,21.60
2023-02-14T13:13:28.513Z,24.73
2023-02-14T13:16:14.754Z,25.80
2023-02-14T13:18:51.888Z,51.10
2023-02-14T13:21:24.631Z,32.17
2023-02-14T13:24:12.794Z,30.75
2023-02-14T13:26:44.573Z,29.35
2023-02-14T13:29:17.883Z,21.73
2023-02-14T13:31:46.564Z,22.88
2023-02-14T13:34:33.006Z,21.35
2023-02-14T13:37:02.651Z,20.73
2023-02-14T13:39:39.105Z,17.90
2023-02-14T13:42:07.430Z,13.88
2023-02-14T13:44:49.128Z,16.23
2023-02-14T13:47:27.207Z,13.50
2023-02-14T13:50:02.421Z,15.13
2023-02-14T13:52:43.055Z,11.23
2023-02-14T13:55:23.184Z,12.98
2023-02-14T13:58:06.920Z,12.82
2023-02-14T14:00:41.747Z,12.35
2023-02-14T14:03:32.558Z,12.27
2023-02-14T14:06:09.331Z,13.85
2023-02-14T14:08:39.435Z,9.80
2023-02-14T14:11:27.567Z,9.35
2023-02-14T14:14:22.157Z,12.65
2023-02-14T14:17:19.915Z,11.90
2023-02-14T14:19:47.540Z,11.23
2023-02-14T14:22:15.714Z,9.18
2023-02-14T14:25:02.448Z,10.10
2023-02-14T14:27:36.280Z,9.63
2023-02-14T14:30:32.998Z,9.65
2023-02-14T14:33:32.961Z,9.88
2023-02-14T14:36:06.687Z,10.18
2023-02-14T14:38:47.867Z,14.93
2023-02-14T14:41:15.291Z,9.88
2023-02-14T14:43:42.909Z,10.68
2023-02-14T14:46:13.447Z,10.38
2023-02-14T14:48:45.587Z,13.32
2023-02-14T14:51:23.598Z,14.85
2023-02-14T14:54:00.145Z,10.57
2023-02-14T14:56:36.831Z,8.80
2023-02-14T14:59:19.026Z,9.73
2023-02-14T15:01:47.142Z,11.43
2023-02-14T15:04:35.401Z,10.15
2023-02-14T15:07:40.277Z,8.18
2023-02-14T15:10:28.871Z,14.13
2023-02-14T15:13:17.856Z,12.23
2023-02-14T15:15:51.063Z,10.75
2023-02-14T15:18:19.411Z,9.07
2023-02-14T15:20:50.438Z,9.82
2023-02-14T15:23:24.625Z,7.05
2023-02-14T15:25:52.253Z,7.72
2023-02-14T15:28:34.321Z,10.70
2023-02-14T15:31:07.101Z,7.30
2023-02-14T15:33:35.206Z,10.52
2023-02-14T15:36:06.485Z,11.40
2023-02-14T15:38:40.445Z,9.88
2023-02-14T15:41:08.244Z,9.25
2023-02-14T15:43:39.532Z,9.65
2023-02-14T15:46:27.678Z,8.65
2023-02-14T15:49:01.375Z,10.20
2023-02-14T15:51:35.848Z,10.57
2023-02-14T15:54:27.867Z,9.25
2023-02-14T15:56:56.749Z,10.23
2023-02-14T15:59:27.613Z,8.45
2023-02-14T16:02:18.058Z,12.15
2023-02-14T16:04:45.355Z,9.35
2023-02-14T16:07:26.412Z,14.25
2023-02-14T16:10:24.151Z,14.13
2023-02-14T16:12:57.968Z,14.02
2023-02-14T16:15:28.540Z,17.30
2023-02-14T16:17:56.245Z,15.82
2023-02-14T16:20:51.852Z,11.25
2023-02-14T16:23:29.300Z,11.77
2023-02-14T16:25:57.606Z,10.88
2023-02-14T16:28:29.177Z,11.65
2023-02-14T16:30:58.670Z,11.48
2023-02-14T16:33:28.955Z,10.02
2023-02-14T16:36:09.687Z,10.10
2023-02-14T16:38:42.988Z,10.98
2023-02-14T16:41:22.282Z,11.35
2023-02-14T16:43:50.561Z,17.92
2023-02-14T16:46:23.738Z,13.10
2023-02-14T16:48:52.707Z,14.02
2023-02-14T16:51:28.453Z,13.50
2023-02-14T16:53:58.445Z,13.27
2023-02-14T16:56:45.874Z,18.67
2023-02-14T16:59:13.031Z,13.90
2023-02-14T17:01:41.074Z,15.40
2023-02-14T17:04:08.365Z,13.75
2023-02-14T17:06:38.820Z,15.82
2023-02-14T17:09:10.245Z,13.70
2023-02-14T17:11:45.391Z,13.97
2023-02-14T17:14:15.976Z,14.70
2023-02-14T17:16:43.532Z,14.48
2023-02-14T17:19:11.307Z,16.90
2023-02-14T17:21:38.710Z,15.18
2023-02-14T17:24:06.010Z,16.45
2023-02-14T17:26:34.020Z,18.92
2023-02-14T17:29:01.168Z,17.02
2023-02-14T17:31:28.783Z,17.00
2023-02-14T17:33:56.326Z,12.25
2023-02-14T17:36:24.212Z,18.23
2023-02-14T17:38:53.918Z,11.90
2023-02-14T17:41:26.345Z,15.65
2023-02-14T17:43:55.026Z,22.85
2023-02-14T17:46:22.497Z,12.20
2023-02-14T17:48:49.803Z,18.13
2023-02-14T17:51:20.332Z,14.95
2023-02-14T17:53:48.179Z,25.95
2023-02-14T17:56:18.123Z,17.23
2023-02-14T17:58:47.926Z,17.15
2023-02-14T18:01:17.891Z,19.85
2023-02-14T18:03:45.121Z,22.40
2023-02-14T18:06:13.994Z,19.02
2023-02-14T18:08:46.343Z,17.35
2023-02-14T18:11:14.166Z,17.85
2023-02-14T18:13:41.593Z,22.83
2023-02-14T18:16:14.620Z,21.30
2023-02-14T18:18:41.843Z,20.92
2023-02-14T18:21:11.554Z,21.42
2023-02-14T18:23:39.373Z,18.77
2023-02-14T18:26:10.684Z,19.80
2023-02-14T18:28:38.518Z,17.27
2023-02-14T18:31:08.199Z,17.48
2023-02-14T18:33:36.745Z,15.98
2023-02-14T18:36:11.845Z,21.27
2023-02-14T18:38:40.320Z,20.83
2023-02-14T18:41:10.024Z,21.02
2023-02-14T18:43:37.608Z,22.67
2023-02-14T18:46:06.292Z,22.33
2023-02-14T18:48:34.148Z,20.42
2023-02-14T18:51:23.638Z,21.35
2023-02-14T18:53:52.382Z,20.33
2023-02-14T18:56:22.886Z,20.00
2023-02-14T18:58:52.898Z,18.20
2023-02-14T19:01:29.241Z,24.15
2023-02-14T19:03:59.608Z,16.10
2023-02-14T19:06:30.495Z,17.95
2023-02-14T19:08:58.039Z,16.67
2023-02-14T19:11:28.741Z,19.88
2023-02-14T19:13:57.781Z,22.20
2023-02-14T19:16:36.857Z,17.75
2023-02-14T19:19:04.921Z,18.88
2023-02-14T19:21:34.605Z,23.33
2023-02-14T19:24:03.873Z,18.88
2023-02-14T19:26:34.771Z,26.02
2023-02-14T19:29:05.757Z,21.63
2023-02-14T19:31:37.469Z,21.58
2023-02-14T19:34:06.730Z,21.52
2023-02-14T19:36:37.632Z,28.83
2023-02-14T19:39:05.080Z,23.13
2023-02-14T19:41:36.766Z,25.10
2023-02-14T19:44:05.875Z,22.85
2023-02-14T19:46:34.154Z,23.60
2023-02-14T19:49:01.917Z,24.75
2023-02-14T19:51:31.352Z,27.77
2023-02-14T19:54:00.362Z,22.75
2023-02-14T19:56:30.639Z,28.65
2023-02-14T19:58:58.174Z,32.20
2023-02-14T20:01:31.489Z,36.35
2023-02-14T20:03:59.093Z,32.03
2023-02-14T20:06:27.733Z,28.98
2023-02-14T20:08:55.785Z,33.67
2023-02-14T20:11:23.265Z,34.97
2023-02-14T20:13:51.705Z,31.30
2023-02-14T20:16:19.467Z,30.67
2023-02-14T20:18:47.060Z,35.38
2023-02-14T20:21:19.685Z,29.42
2023-02-14T20:23:47.517Z,30.65
2023-02-14T20:26:16.505Z,32.05
2023-02-14T20:28:44.821Z,27.35
2023-02-14T20:31:15.697Z,29.23
2023-02-14T20:33:43.815Z,26.50
2023-02-14T20:36:11.691Z,30.65
2023-02-14T20:38:39.686Z,27.10
2023-02-14T20:41:10.306Z,28.98
2023-02-14T20:43:40.080Z,25.05
2023-02-14T20:46:09.024Z,26.95
2023-02-14T20:48:36.691Z,29.00
2023-02-14T20:51:30.239Z,26.42
2023-02-14T20:53:57.858Z,25.83
2023-02-14T20:56:25.260Z,34.30
2023-02-14T20:58:52.517Z,30.27
2023-02-14T21:01:24.808Z,26.58
2023-02-14T21:06:26.219Z,33.90
2023-02-14T21:08:53.807Z,30.85
2023-02-14T21:11:22.773Z,33.05
2023-02-14T21:13:53.272Z,28.23
2023-02-14T21:16:21.224Z,32.17
2023-02-14T21:18:55.104Z,26.40
2023-02-14T21:21:23.617Z,26.40
2023-02-14T21:23:52.153Z,34.67
2023-02-14T21:26:20.224Z,25.40
2023-02-14T21:28:48.093Z,29.25
2023-02-14T21:31:17.436Z,33.33
2023-02-14T21:33:44.749Z,28.17
2023-02-14T21:36:15.209Z,29.83
2023-02-14T21:38:43.384Z,32.40
2023-02-14T21:41:13.463Z,33.92
2023-02-14T21:43:43.318Z,28.63
2023-02-14T21:46:27.473Z,31.23
2023-02-14T21:49:14.526Z,25.85
2023-02-14T21:51:42.434Z,34.00
2023-02-14T21:54:10.045Z,32.08
2023-02-14T21:56:37.940Z,30.50
2023-02-14T21:59:05.900Z,27.45
2023-02-14T22:01:35.422Z,29.90
2023-02-14T22:04:05.281Z,30.23
2023-02-14T22:06:36.622Z,32.40
2023-02-14T22:09:04.465Z,27.33
2023-02-14T22:11:32.390Z,34.47
2023-02-14T22:14:00.374Z,29.77
2023-02-14T22:16:27.756Z,28.83
2023-02-14T22:18:55.105Z,29.67
2023-02-14T22:21:24.959Z,29.63
2023-02-14T22:23:53.191Z,31.33
2023-02-14T22:26:31.599Z,32.17
2023-02-14T22:29:00.404Z,29.13
2023-02-14T22:31:32.536Z,29.92
2023-02-14T22:36:26.926Z,32.78
2023-02-14T22:38:54.075Z,33.00
2023-02-14T22:41:24.073Z,29.00
2023-02-14T22:43:52.264Z,25.85
2023-02-14T22:46:25.159Z,31.48
2023-02-14T22:48:53.638Z,34.10
2023-02-14T22:51:27.250Z,31.48
2023-02-14T22:53:57.021Z,29.77
2023-02-14T22:56:31.469Z,33.88
2023-02-14T22:59:02.585Z,31.73
2023-02-14T23:01:29.864Z,28.25
2023-02-14T23:03:58.786Z,34.78
2023-02-14T23:06:28.062Z,31.33
2023-02-14T23:08:56.441Z,30.05
2023-02-14T23:11:26.277Z,29.52
2023-02-14T23:14:12.298Z,26.75
2023-02-14T23:16:58.200Z,26.63
2023-02-14T23:19:45.948Z,34.25
2023-02-14T23:22:19.841Z,32.97
2023-02-14T23:24:49.397Z,38.25
2023-02-14T23:27:19.427Z,30.90
2023-02-14T23:29:46.823Z,35.85
2023-02-14T23:32:14.600Z,31.52
2023-02-14T23:34:43.256Z,31.88
2023-02-14T23:37:12.612Z,35.38
2023-02-14T23:39:40.338Z,34.30
2023-02-14T23:42:10.553Z,31.20
2023-02-14T23:44:38.373Z,31.98
2023-02-14T23:47:07.480Z,33.58
2023-02-14T23:49:37.164Z,30.40
2023-02-14T23:54:35.464Z,31.25
2023-02-14T23:57:03.655Z,32.20
2023-02-14T23:59:31.111Z,37.20
